Time;durP1;ratioP1;P1;durP2;ratioP2;P2;SDS_P1;SDS_P2;PMS_P1;PMS_P2;Temp;Humidity;BMP_temperature;BMP_pressure;BME280_temperature;BME280_humidity;BME280_pressure;Samples;Min_cycle;Max_cycle;Signal;HPM_P1;HPM_P2
2023/05/04 00:01:22;;;;;;;2.20;1.45;;;18.00;68.70;;;;;;5064542;28;20055;-36
2023/05/04 00:03:49;;;;;;;2.05;1.40;;;;;;;;;;5071792;28;20094;-33
2023/05/04 00:06:15;;;;;;;3.35;1.60;;;18.00;68.60;;;;;;5071628;28;20048;-35
2023/05/04 00:08:43;;;;;;;1.65;1.30;;;;;;;;;;5072108;28;20056;-36
2023/05/04 00:11:10;;;;;;;1.85;1.40;;;18.10;68.70;;;;;;5072291;28;20052;-38
2023/05/04 00:13:38;;;;;;;2.75;1.40;;;17.90;62.30;;;;;;5071645;28;20135;-36
2023/05/04 00:16:05;;;;;;;2.72;1.80;;;18.30;60.70;;;;;;5072006;28;20048;-36
2023/05/04 00:18:32;;;;;;;1.70;1.50;;;17.10;68.10;;;;;;5069938;28;20048;-35
2023/05/04 00:20:59;;;;;;;1.75;1.33;;;;;;;;;;5052223;28;20059;-37
2023/05/04 00:23:26;;;;;;;2.95;1.52;;;17.90;58.00;;;;;;5050411;28;20578;-36
2023/05/04 00:25:52;;;;;;;1.60;1.30;;;18.10;60.10;;;;;;5051844;28;20132;-35
2023/05/04 00:28:19;;;;;;;2.00;1.50;;;;;;;;;;5051788;28;20128;-35
2023/05/04 00:30:47;;;;;;;2.28;1.45;;;18.30;68.70;;;;;;5051839;28;20053;-37
2023/05/04 00:33:14;;;;;;;3.15;1.77;;;17.80;69.30;;;;;;5056092;28;20166;-39
2023/05/04 00:35:41;;;;;;;1.60;1.40;;;;;;;;;;5071895;28;20068;-37
2023/05/04 00:38:08;;;;;;;2.33;1.50;;;18.50;68.90;;;;;;5071454;28;20132;-31
2023/05/04 00:40:35;;;;;;;2.50;1.50;;;18.50;69.30;;;;;;5071727;28;20495;-31
2023/05/04 00:43:02;;;;;;;1.85;1.40;;;;;;;;;;5070650;28;20654;-34
2023/05/04 00:45:29;;;;;;;1.85;1.50;;;18.00;69.50;;;;;;5071638;28;20509;-30
2023/05/04 00:47:57;;;;;;;1.80;1.48;;;17.80;69.40;;;;;;5071124;28;20123;-31
2023/05/04 00:50:24;;;;;;;2.08;1.45;;;;;;;;;;5071617;28;20465;-36
2023/05/04 00:52:51;;;;;;;4.28;1.50;;;17.50;68.40;;;;;;5071348;28;20166;-31
2023/05/04 00:55:17;;;;;;;2.00;1.58;;;18.10;69.20;;;;;;5071647;28;20131;-31
2023/05/04 00:57:44;;;;;;;1.63;1.50;;;;;;;;;;5071502;28;20131;-34
2023/05/04 01:00:12;;;;;;;3.05;1.60;;;17.80;69.00;;;;;;5071475;28;20052;-31
2023/05/04 01:02:39;;;;;;;2.15;1.40;;;18.40;69.00;;;;;;5070672;28;20048;-31
2023/05/04 01:05:08;;;;;;;2.30;1.58;;;18.10;54.20;;;;;;5071167;28;20045;-32
2023/05/04 01:07:38;;;;;;;2.95;1.60;;;17.90;49.80;;;;;;5071784;28;20131;-35
2023/05/04 01:10:07;;;;;;;2.03;1.40;;;17.90;49.80;;;;;;5071389;28;20151;-33
2023/05/04 01:12:35;;;;;;;2.05;1.55;;;18.20;69.30;;;;;;5071149;28;20049;-30
2023/05/04 01:15:02;;;;;;;3.30;1.65;;;;;;;;;;5070865;28;20493;-34
2023/05/04 01:17:29;;;;;;;2.25;1.70;;;17.10;63.70;;;;;;5056658;28;20487;-31
2023/05/04 01:19:56;;;;;;;1.77;1.50;;;18.20;69.30;;;;;;5051147;28;20131;-30
2023/05/04 01:22:24;;;;;;;1.92;1.58;;;17.90;49.80;;;;;;5051373;28;20060;-34
2023/05/04 01:24:51;;;;;;;1.83;1.50;;;;;;;;;;5051246;28;20079;-34
2023/05/04 01:27:25;;;;;;;2.42;1.42;;;17.90;49.80;;;;;;5051109;28;20040;-30
2023/05/04 01:29:56;;;;;;;1.75;1.40;;;18.30;66.20;;;;;;5051223;28;20059;-31
2023/05/04 01:32:26;;;;;;;2.25;1.50;;;;;;;;;;5069553;28;21836;-34
2023/05/04 01:34:52;;;;;;;1.85;1.50;;;17.50;69.00;;;;;;5071230;28;20044;-29
2023/05/04 01:37:19;;;;;;;1.73;1.50;;;16.90;69.20;;;;;;5070620;28;20128;-31
2023/05/04 01:39:47;;;;;;;3.08;1.60;;;17.80;63.90;;;;;;5071190;28;20131;-31
2023/05/04 01:42:14;;;;;;;1.85;1.50;;;17.60;61.10;;;;;;5071112;28;20044;-31
2023/05/04 01:44:40;;;;;;;1.92;1.48;;;17.30;68.60;;;;;;5071246;28;20132;-30
2023/05/04 01:47:07;;;;;;;2.38;1.50;;;18.10;69.40;;;;;;5070180;28;20048;-31
2023/05/04 01:49:34;;;;;;;2.70;1.77;;;18.50;56.60;;;;;;5071191;28;20131;-32
2023/05/04 01:52:01;;;;;;;2.13;1.58;;;17.00;68.40;;;;;;5070847;28;20080;-30
2023/05/04 01:54:27;;;;;;;1.65;1.50;;;18.30;69.60;;;;;;5073447;28;20051;-30
2023/05/04 01:56:55;;;;;;;2.28;1.63;;;17.90;49.90;;;;;;5066194;28;20128;-32
2023/05/04 01:59:22;;;;;;;2.58;1.63;;;;;;;;;;5061412;28;20044;-33
2023/05/04 02:01:49;;;;;;;2.47;1.70;;;;;;;;;;5074700;28;20127;-32
2023/05/04 02:04:16;;;;;;;2.35;1.80;;;;;;;;;;5073465;28;20160;-35
2023/05/04 02:06:43;;;;;;;3.08;1.70;;;17.70;69.20;;;;;;5074368;28;20051;-30
2023/05/04 02:09:10;;;;;;;3.35;1.60;;;18.20;69.50;;;;;;5074026;28;20489;-30
2023/05/04 02:11:36;;;;;;;2.60;1.80;;;17.70;52.30;;;;;;5074472;28;20131;-32
2023/05/04 02:14:04;;;;;;;2.35;1.60;;;17.80;69.20;;;;;;5073811;28;20484;-30
2023/05/04 02:16:31;;;;;;;2.90;1.70;;;18.50;69.30;;;;;;5074420;28;20136;-30
2023/05/04 02:18:58;;;;;;;3.42;1.80;;;16.40;68.60;;;;;;5068193;28;20442;-30
2023/05/04 02:21:25;;;;;;;2.10;1.77;;;;;;;;;;5054309;28;20056;-34
2023/05/04 02:23:52;;;;;;;2.83;1.70;;;17.80;69.00;;;;;;5054052;28;20140;-31
2023/05/04 02:26:18;;;;;;;2.25;1.60;;;17.80;69.40;;;;;;5053765;28;20627;-30
2023/05/04 02:28:45;;;;;;;2.95;1.65;;;17.90;57.50;;;;;;5054089;28;20131;-34
2023/05/04 02:31:13;;;;;;;2.47;1.50;;;17.70;69.00;;;;;;5053839;28;20523;-30
2023/05/04 02:33:40;;;;;;;2.63;1.80;;;;;;;;;;5062051;28;20127;-30
2023/05/04 02:36:07;;;;;;;2.08;1.50;;;;;;;;;;5073018;28;20055;-35
2023/05/04 02:38:34;;;;;;;2.10;1.65;;;17.80;69.30;;;;;;5073868;28;20480;-31
2023/05/04 02:41:02;;;;;;;3.30;1.70;;;;;;;;;;5074101;28;20079;-30
2023/05/04 02:43:29;;;;;;;2.58;1.90;;;;;;;;;;5073381;28;20510;-30
2023/05/04 02:45:56;;;;;;;2.40;1.73;;;;;;;;;;5073559;28;20098;-33
2023/05/04 02:48:24;;;;;;;2.28;1.70;;;18.10;70.00;;;;;;5072778;28;20124;-31
2023/05/04 02:50:51;;;;;;;2.08;1.67;;;17.50;69.10;;;;;;5073423;28;20131;-32
2023/05/04 02:53:18;;;;;;;2.85;1.60;;;18.00;61.70;;;;;;5073424;28;20052;-31
2023/05/04 02:55:45;;;;;;;2.03;1.60;;;17.50;66.00;;;;;;5073600;28;20045;-30
2023/05/04 02:58:12;;;;;;;2.70;1.88;;;;;;;;;;5073257;28;20474;-30
2023/05/04 03:00:38;;;;;;;2.17;1.77;;;17.50;69.60;;;;;;5073644;28;20131;-31
2023/05/04 03:03:05;;;;;;;2.00;1.60;;;17.10;65.00;;;;;;5072600;28;20175;-30
2023/05/04 03:05:33;;;;;;;3.00;1.70;;;17.60;57.60;;;;;;5072533;28;20094;-32
2023/05/04 03:08:00;;;;;;;2.90;2.00;;;18.20;50.90;;;;;;5073110;28;20131;-32
2023/05/04 03:10:27;;;;;;;2.58;1.90;;;18.70;69.70;;;;;;5073302;28;20117;-30
2023/05/04 03:12:54;;;;;;;2.47;1.70;;;18.30;69.70;;;;;;5073165;28;20132;-30
2023/05/04 03:15:21;;;;;;;3.10;1.90;;;;;;;;;;5072894;28;20123;-34
2023/05/04 03:17:47;;;;;;;2.40;1.80;;;17.70;69.10;;;;;;5061931;28;20132;-30
2023/05/04 03:20:14;;;;;;;2.97;1.90;;;16.90;68.60;;;;;;5053119;28;20053;-31
2023/05/04 03:22:43;;;;;;;2.08;1.75;;;17.30;68.90;;;;;;5052976;28;20085;-30
2023/05/04 03:25:10;;;;;;;3.60;2.00;;;17.50;69.00;;;;;;5053011;28;20127;-30
2023/05/04 03:27:36;;;;;;;2.80;1.90;;;16.60;68.50;;;;;;5052807;28;20092;-31
2023/05/04 03:30:03;;;;;;;2.78;1.73;;;17.60;63.60;;;;;;5052551;28;20136;-30
2023/05/04 03:32:30;;;;;;;2.60;1.80;;;17.80;70.10;;;;;;5066222;28;20050;-30
2023/05/04 03:34:57;;;;;;;2.72;1.90;;;;;;;;;;5072770;28;20128;-35
2023/05/04 03:37:24;;;;;;;1.83;1.63;;;;;;;;;;5072199;28;20131;-30
2023/05/04 03:39:52;;;;;;;2.65;1.90;;;17.40;49.70;;;;;;5072600;28;20053;-35
2023/05/04 03:42:19;;;;;;;2.30;1.80;;;;;;;;;;5072236;28;20136;-35
2023/05/04 03:44:46;;;;;;;2.78;1.83;;;17.40;68.90;;;;;;5072385;28;20059;-30
2023/05/04 03:47:13;;;;;;;2.20;2.00;;;;;;;;;;5071818;28;20564;-34
2023/05/04 03:49:40;;;;;;;2.60;2.03;;;16.20;68.60;;;;;;5072258;28;20577;-31
2023/05/04 03:52:07;;;;;;;3.80;2.10;;;18.00;70.10;;;;;;5072390;28;20049;-30
2023/05/04 03:54:34;;;;;;;2.53;1.80;;;;;;;;;;5071873;28;20056;-34
2023/05/04 03:57:03;;;;;;;2.33;1.90;;;17.50;69.00;;;;;;5072227;28;20131;-32
2023/05/04 03:59:30;;;;;;;3.13;2.00;;;;;;;;;;5072161;28;20041;-34
2023/05/04 04:01:57;;;;;;;2.45;1.83;;;18.20;69.80;;;;;;5071727;28;20048;-30
2023/05/04 04:04:23;;;;;;;2.00;1.80;;;17.50;69.90;;;;;;5072046;28;20402;-30
2023/05/04 04:06:50;;;;;;;3.15;2.17;;;17.40;55.40;;;;;;5072244;28;20095;-31
2023/05/04 04:09:17;;;;;;;2.30;1.80;;;;;;;;;;5072137;28;20131;-30
2023/05/04 04:11:44;;;;;;;2.25;1.83;;;;;;;;;;5071893;28;20056;-32
2023/05/04 04:14:12;;;;;;;2.42;1.88;;;17.40;49.80;;;;;;5072155;28;20082;-30
2023/05/04 04:16:39;;;;;;;3.10;2.00;;;18.20;69.70;;;;;;5055661;28;20049;-30
2023/05/04 04:19:06;;;;;;;2.40;1.83;;;17.70;69.40;;;;;;5051938;28;20124;-31
2023/05/04 04:21:33;;;;;;;2.40;1.70;;;17.50;69.50;;;;;;5051899;28;20053;-31
2023/05/04 04:24:00;;;;;;;3.35;1.90;;;;;;;;;;5051766;28;20045;-30
2023/05/04 04:26:27;;;;;;;2.33;1.92;;;17.60;61.10;;;;;;5051704;28;20053;-31
2023/05/04 04:28:53;;;;;;;2.47;1.80;;;17.30;68.10;;;;;;5051792;28;20049;-30
2023/05/04 04:31:21;;;;;;;3.85;2.20;;;17.80;52.50;;;;;;5070426;28;20051;-30
2023/05/04 04:33:49;;;;;;;3.03;1.85;;;17.10;69.20;;;;;;5071718;28;20051;-31
2023/05/04 04:36:17;;;;;;;3.15;1.90;;;;;;;;;;5071060;28;20041;-30
2023/05/04 04:38:43;;;;;;;2.63;2.00;;;17.70;69.10;;;;;;5071502;28;20067;-31
2023/05/04 04:41:10;;;;;;;2.65;1.70;;;17.50;69.40;;;;;;5071670;28;20044;-30
2023/05/04 04:43:37;;;;;;;2.17;1.83;;;18.00;53.10;;;;;;5071280;28;20080;-33
2023/05/04 04:46:04;;;;;;;3.55;2.00;;;17.40;68.80;;;;;;5071280;28;20143;-30
2023/05/04 04:48:32;;;;;;;3.60;2.30;;;17.90;69.10;;;;;;5071667;28;20052;-31
2023/05/04 04:50:59;;;;;;;2.92;2.00;;;;;;;;;;5070338;28;20143;-30
2023/05/04 04:53:26;;;;;;;3.17;1.95;;;17.80;69.10;;;;;;5061317;28;20059;-30
2023/05/04 04:55:53;;;;;;;4.13;1.80;;;17.70;69.10;;;;;;5051775;28;20394;-31
2023/05/04 04:58:20;;;;;;;2.05;1.70;;;18.00;63.40;;;;;;5052458;28;20128;-31
2023/05/04 05:00:47;;;;;;;3.15;1.90;;;18.00;63.30;;;;;;5071247;28;20062;-30
2023/05/04 05:03:14;;;;;;;2.85;1.90;;;;;;;;;;5071254;28;20487;-33
2023/05/04 05:05:42;;;;;;;2.45;1.83;;;18.00;69.20;;;;;;5071504;28;20094;-30
2023/05/04 05:08:09;;;;;;;2.47;1.90;;;16.50;68.40;;;;;;5071887;28;20127;-30
2023/05/04 05:10:36;;;;;;;2.53;2.00;;;;;;;;;;5071338;28;20127;-34
2023/05/04 05:13:04;;;;;;;1.75;1.58;;;17.20;69.20;;;;;;5070450;28;20053;-31
2023/05/04 05:15:31;;;;;;;2.00;1.80;;;17.40;69.20;;;;;;5051591;28;20056;-30
2023/05/04 05:17:57;;;;;;;2.10;1.65;;;17.20;59.10;;;;;;5055646;28;20450;-30
2023/05/04 05:20:24;;;;;;;4.05;1.88;;;17.40;52.20;;;;;;5060084;28;20052;-33
2023/05/04 05:22:52;;;;;;;3.03;2.28;;;17.90;69.10;;;;;;5059804;28;20044;-31
2023/05/04 05:25:20;;;;;;;2.60;1.80;;;;;;;;;;5061809;28;20128;-34
2023/05/04 05:27:47;;;;;;;2.03;1.60;;;;;;;;;;5054416;28;20128;-33
2023/05/04 05:30:14;;;;;;;2.75;1.50;;;17.40;69.60;;;;;;5061352;28;20123;-30
2023/05/04 05:32:41;;;;;;;2.70;1.63;;;;;;;;;;5061912;28;20545;-35
2023/05/04 05:35:09;;;;;;;2.42;1.63;;;18.10;68.90;;;;;;5065628;28;20044;-32
2023/05/04 05:37:35;;;;;;;2.97;1.80;;;18.30;69.00;;;;;;5072073;28;20060;-31
2023/05/04 05:40:06;;;;;;;2.88;1.60;;;18.20;68.90;;;;;;5074863;28;20134;-31
2023/05/04 05:42:33;;;;;;;2.13;1.50;;;18.40;54.30;;;;;;5073989;28;20490;-32
2023/05/04 05:45:00;;;;;;;2.42;1.73;;;18.30;68.50;;;;;;5067083;28;20131;-31
2023/05/04 05:47:27;;;;;;;2.25;1.60;;;;;;;;;;5066186;28;20055;-33
2023/05/04 05:49:54;;;;;;;1.95;1.52;;;18.50;68.30;;;;;;5071661;28;20045;-31
2023/05/04 05:52:21;;;;;;;3.63;1.50;;;;;;;;;;5064356;28;20532;-38
2023/05/04 05:54:48;;;;;;;2.67;1.67;;;18.50;67.80;;;;;;5063319;28;20140;-31
2023/05/04 05:57:16;;;;;;;2.45;1.52;;;18.70;48.80;;;;;;5063427;28;20123;-33
2023/05/04 05:59:43;;;;;;;2.40;1.60;;;;;;;;;;5064863;28;20131;-30
2023/05/04 06:02:13;;;;;;;4.65;1.60;;;;;;;;;;5053470;28;20128;-42
2023/05/04 06:04:40;;;;;;;2.55;1.33;;;19.00;56.60;;;;;;5053898;28;20080;-32
2023/05/04 06:07:06;;;;;;;3.55;1.67;;;19.70;68.00;;;;;;5054506;28;20053;-31
2023/05/04 06:09:33;;;;;;;2.60;1.48;;;19.40;67.70;;;;;;5059737;28;20044;-30
2023/05/04 06:12:00;;;;;;;3.83;1.48;;;19.20;48.40;;;;;;5063435;28;20057;-32
2023/05/04 06:14:28;;;;;;;2.13;1.55;;;19.70;68.10;;;;;;5062546;28;20048;-32
2023/05/04 06:16:55;;;;;;;3.95;1.60;;;19.40;67.10;;;;;;5058336;28;20063;-32
2023/05/04 06:19:22;;;;;;;2.05;1.50;;;;;;;;;;5054572;28;20067;-36
2023/05/04 06:21:49;;;;;;;3.35;1.63;;;19.20;66.60;;;;;;5064469;28;20119;-32
2023/05/04 06:24:16;;;;;;;2.75;1.50;;;20.50;67.30;;;;;;5064233;28;20128;-31
2023/05/04 06:26:42;;;;;;;2.28;1.30;;;19.30;52.50;;;;;;5061814;28;20498;-33
2023/05/04 06:29:09;;;;;;;2.67;1.45;;;19.40;67.20;;;;;;5064079;28;20123;-33
2023/05/04 06:31:37;;;;;;;1.92;1.67;;;19.80;66.60;;;;;;5064243;28;20451;-32
2023/05/04 06:34:04;;;;;;;1.50;1.30;;;20.20;66.80;;;;;;5063253;28;20127;-31
2023/05/04 06:36:31;;;;;;;2.22;1.50;;;;;;;;;;5066037;28;20123;-35
2023/05/04 06:38:57;;;;;;;2.45;1.58;;;18.90;66.40;;;;;;5055929;28;20051;-31
2023/05/04 06:41:24;;;;;;;1.58;1.35;;;20.50;67.10;;;;;;5052481;28;20642;-33
2023/05/04 06:43:51;;;;;;;1.77;1.40;;;;;;;;;;5053904;28;20057;-32
2023/05/04 06:46:18;;;;;;;2.28;1.45;;;19.40;66.50;;;;;;5053978;28;20125;-31
2023/05/04 06:48:46;;;;;;;2.05;1.40;;;19.70;47.60;;;;;;5053751;28;20131;-34
2023/05/04 06:51:14;;;;;;;3.55;1.60;;;;;;;;;;5064060;28;20105;-35
2023/05/04 06:53:41;;;;;;;2.22;1.40;;;19.90;52.10;;;;;;5073530;28;20485;-33
2023/05/04 06:56:08;;;;;;;1.85;1.38;;;20.50;66.90;;;;;;5072943;28;20045;-32
2023/05/04 06:58:35;;;;;;;1.63;1.40;;;19.40;53.10;;;;;;5074044;28;20620;-31
2023/05/04 07:01:02;;;;;;;1.98;1.50;;;18.50;65.40;;;;;;5073970;28;20424;-32
2023/05/04 07:03:28;;;;;;;5.55;1.52;;;19.80;66.00;;;;;;5073116;28;20051;-32
2023/05/04 07:05:56;;;;;;;2.83;1.48;;;19.80;47.50;;;;;;5073298;28;20408;-36
2023/05/04 07:08:23;;;;;;;2.05;1.25;;;;;;;;;;5064432;28;20040;-35
2023/05/04 07:10:50;;;;;;;2.17;1.40;;;20.00;66.00;;;;;;5060379;28;20047;-33
2023/05/04 07:13:17;;;;;;;2.53;1.48;;;19.40;66.10;;;;;;5053282;28;20128;-31
2023/05/04 07:15:44;;;;;;;3.35;1.30;;;;;;;;;;5053346;28;20131;-35
2023/05/04 07:18:11;;;;;;;1.60;1.33;;;20.60;66.80;;;;;;5053080;28;20048;-32
2023/05/04 07:20:38;;;;;;;1.60;1.30;;;;;;;;;;5053079;28;20049;-36
2023/05/04 07:23:06;;;;;;;2.30;1.58;;;19.40;66.10;;;;;;5053212;28;20132;-33
2023/05/04 07:25:33;;;;;;;2.17;1.45;;;18.70;65.40;;;;;;5064278;28;20056;-32
2023/05/04 07:28:00;;;;;;;2.13;1.30;;;;;;;;;;5073216;28;20124;-32
2023/05/04 07:30:27;;;;;;;2.95;1.45;;;19.90;66.90;;;;;;5067675;28;20139;-32
2023/05/04 07:32:53;;;;;;;1.65;1.40;;;19.80;66.90;;;;;;5072255;28;20047;-31
2023/05/04 07:35:20;;;;;;;1.33;1.20;;;19.70;47.60;;;;;;5066589;28;20141;-35
2023/05/04 07:37:48;;;;;;;2.65;1.50;;;19.00;65.90;;;;;;5063482;28;20051;-32
2023/05/04 07:40:16;;;;;;;2.15;1.45;;;19.70;47.60;;;;;;5065361;28;20053;-36
2023/05/04 07:42:43;;;;;;;1.77;1.30;;;;;;;;;;5052438;28;20133;-36
2023/05/04 07:45:10;;;;;;;1.83;1.40;;;20.10;66.90;;;;;;5055997;28;20053;-32
2023/05/04 07:47:37;;;;;;;2.33;1.55;;;20.00;64.10;;;;;;5053048;28;20075;-32
2023/05/04 07:50:04;;;;;;;1.85;1.38;;;19.90;66.90;;;;;;5053280;28;20474;-32
2023/05/04 07:52:31;;;;;;;1.75;1.30;;;;;;;;;;5072072;28;20055;-36
2023/05/04 07:54:58;;;;;;;2.70;1.60;;;19.30;66.40;;;;;;5071572;28;20501;-31
2023/05/04 07:57:26;;;;;;;2.80;1.33;;;19.50;47.80;;;;;;5071916;28;20154;-36
2023/05/04 07:59:56;;;;;;;2.55;1.50;;;19.40;47.80;;;;;;5072329;28;20131;-36
2023/05/04 08:02:22;;;;;;;2.90;1.33;;;18.70;66.30;;;;;;5071530;28;20131;-31
2023/05/04 08:04:49;;;;;;;2.20;1.40;;;19.50;53.60;;;;;;5063893;28;20071;-33
2023/05/04 08:07:16;;;;;;;1.85;1.20;;;18.30;59.30;;;;;;5061206;28;20040;-32
2023/05/04 08:09:43;;;;;;;5.35;1.40;;;19.20;66.70;;;;;;5062844;28;20055;-34
2023/05/04 08:12:11;;;;;;;2.22;1.20;;;18.70;50.80;;;;;;5054536;28;20048;-34
2023/05/04 08:14:39;;;;;;;2.58;1.45;;;19.40;48.10;;;;;;5052598;28;20560;-34
2023/05/04 08:17:06;;;;;;;2.28;1.48;;;;;;;;;;5064070;28;20138;-33
2023/05/04 08:19:33;;;;;;;2.20;1.30;;;19.50;66.60;;;;;;5070996;28;20506;-32
2023/05/04 08:22:00;;;;;;;2.33;1.60;;;;;;;;;;5071867;28;20498;-33
2023/05/04 08:24:27;;;;;;;2.30;1.42;;;20.30;52.40;;;;;;5071825;28;20094;-32
2023/05/04 08:26:55;;;;;;;3.22;1.70;;;;;;;;;;5070977;28;20113;-36
2023/05/04 08:29:21;;;;;;;2.03;1.58;;;19.00;66.10;;;;;;5071744;28;20048;-31
2023/05/04 08:31:50;;;;;;;2.85;1.67;;;19.30;47.80;;;;;;5060264;28;20565;-32
2023/05/04 08:34:16;;;;;;;2.83;1.70;;;19.70;67.30;;;;;;5060667;28;20056;-32
2023/05/04 08:36:43;;;;;;;2.25;1.50;;;19.60;67.30;;;;;;5056201;28;20549;-30
2023/05/04 08:39:11;;;;;;;3.17;1.85;;;;;;;;;;5060145;28;20047;-31
2023/05/04 08:41:39;;;;;;;4.43;1.70;;;19.20;62.60;;;;;;5061271;28;20385;-32
2023/05/04 08:44:07;;;;;;;3.85;1.50;;;19.60;67.40;;;;;;5050588;28;20037;-31
2023/05/04 08:46:34;;;;;;;1.88;1.35;;;19.10;64.60;;;;;;5056565;28;20041;-32
2023/05/04 08:49:02;;;;;;;2.40;1.40;;;20.20;60.70;;;;;;5063817;28;20053;-32
2023/05/04 08:51:29;;;;;;;2.33;1.77;;;19.30;47.90;;;;;;5060638;28;20053;-35
2023/05/04 08:53:56;;;;;;;1.90;1.40;;;19.40;67.10;;;;;;5063039;28;20053;-31
2023/05/04 08:56:22;;;;;;;2.35;1.50;;;19.40;67.10;;;;;;5051827;28;20147;-31
2023/05/04 08:58:50;;;;;;;3.20;1.30;;;19.10;60.60;;;;;;5051780;28;20135;-31
2023/05/04 09:01:17;;;;;;;2.35;1.42;;;18.90;66.10;;;;;;5051795;28;20053;-32
2023/05/04 09:03:44;;;;;;;4.07;1.60;;;19.50;66.30;;;;;;5053119;28;20527;-31
2023/05/04 09:06:12;;;;;;;2.67;1.50;;;19.30;47.90;;;;;;5057230;28;20060;-34
2023/05/04 09:08:39;;;;;;;1.65;1.35;;;;;;;;;;5073286;28;20123;-35
2023/05/04 09:11:07;;;;;;;3.00;1.63;;;;;;;;;;5058344;28;20059;-32
2023/05/04 09:13:34;;;;;;;2.85;1.40;;;;;;;;;;5067365;28;20067;-33
2023/05/04 09:16:02;;;;;;;3.65;1.63;;;18.80;66.80;;;;;;5074868;28;20114;-31
2023/05/04 09:18:39;;;;;;;5.88;1.80;;;18.70;48.30;;;;;;5073944;28;20040;-32
2023/05/04 09:21:06;;;;;;;3.60;1.70;;;;;;;;;;5074627;28;20049;-35
2023/05/04 09:23:44;;;;;;;2.70;1.70;;;19.00;66.10;;;;;;5075309;28;20090;-31
2023/05/04 09:26:11;;;;;;;3.25;1.75;;;18.90;66.40;;;;;;5075262;28;20052;-31
2023/05/04 09:28:38;;;;;;;3.67;1.52;;;19.30;47.60;;;;;;5075165;28;20059;-35
2023/05/04 09:31:05;;;;;;;3.58;1.67;;;19.70;66.20;;;;;;5075209;28;20052;-31
2023/05/04 09:33:31;;;;;;;6.47;1.63;;;19.60;67.10;;;;;;5074376;28;20079;-31
2023/05/04 09:35:59;;;;;;;4.47;1.70;;;19.00;62.60;;;;;;5074604;28;20493;-31
2023/05/04 09:38:26;;;;;;;3.67;1.40;;;;;;;;;;5074955;28;20044;-35
2023/05/04 09:40:54;;;;;;;4.50;1.60;;;19.50;56.80;;;;;;5074819;28;20508;-31
2023/05/04 09:43:21;;;;;;;5.95;2.08;;;19.50;66.30;;;;;;5074210;28;20489;-31
2023/05/04 09:45:48;;;;;;;5.25;1.90;;;19.60;66.30;;;;;;5064096;28;20111;-31
2023/05/04 09:48:16;;;;;;;7.90;1.88;;;19.40;65.70;;;;;;5073843;28;20123;-31
2023/05/04 09:50:48;;;;;;;9.27;2.13;;;19.50;61.80;;;;;;5074569;28;20391;-32
2023/05/04 09:53:15;;;;;;;11.18;2.03;;;20.10;48.10;;;;;;5074451;28;20055;-32
2023/05/04 09:55:42;;;;;;;9.68;1.98;;;18.90;66.30;;;;;;5074934;28;20056;-31
2023/05/04 09:58:10;;;;;;;11.57;2.33;;;19.50;47.20;;;;;;5074583;28;20044;-33
2023/05/04 10:00:37;;;;;;;10.07;2.47;;;19.80;53.30;;;;;;5074826;28;20139;-33
2023/05/04 10:03:04;;;;;;;6.25;2.17;;;19.70;66.00;;;;;;5073418;28;20509;-31
2023/05/04 10:05:30;;;;;;;9.25;1.95;;;19.10;65.30;;;;;;5074613;28;20144;-31
2023/05/04 10:07:59;;;;;;;10.00;2.20;;;19.70;61.80;;;;;;5059110;28;20525;-32
2023/05/04 10:10:26;;;;;;;10.25;2.38;;;20.80;66.20;;;;;;5054652;28;20077;-31
2023/05/04 10:12:52;;;;;;;8.82;2.28;;;19.30;65.80;;;;;;5054457;28;20053;-31
2023/05/04 10:15:20;;;;;;;5.47;1.70;;;19.30;46.80;;;;;;5054120;28;20555;-33
2023/05/04 10:17:54;;;;;;;5.32;1.90;;;19.70;47.00;;;;;;5054337;28;20055;-35
2023/05/04 10:20:33;;;;;;;6.32;2.00;;;20.20;66.50;;;;;;5068339;28;20051;-31
2023/05/04 10:23:22;;;;;;;10.05;2.10;;;20.10;59.40;;;;;;5074361;28;20091;-32
2023/05/04 10:25:57;;;;;;;5.32;1.95;;;19.70;66.10;;;;;;5067828;28;20059;-31
2023/05/04 10:28:32;;;;;;;6.78;1.60;;;20.90;65.80;;;;;;5056012;28;20118;-31
2023/05/04 10:31:00;;;;;;;6.22;1.88;;;20.80;66.10;;;;;;5059099;28;20045;-31
2023/05/04 10:33:27;;;;;;;7.43;2.10;;;20.90;65.80;;;;;;5054050;28;20136;-31
2023/05/04 10:35:53;;;;;;;5.60;1.80;;;20.10;65.40;;;;;;5070716;28;20740;-31
2023/05/04 10:38:30;;;;;;;5.60;1.83;;;20.80;59.90;;;;;;5073773;28;20128;-32
2023/05/04 10:40:57;;;;;;;7.95;1.85;;;19.80;65.60;;;;;;5074042;28;20044;-31
2023/05/04 10:43:23;;;;;;;4.85;1.80;;;20.20;65.40;;;;;;5068624;28;20059;-31
2023/05/04 10:45:50;;;;;;;3.67;1.80;;;19.90;54.10;;;;;;5074125;28;20102;-32
2023/05/04 10:48:18;;;;;;;4.57;1.60;;;19.50;65.90;;;;;;5066308;28;20558;-31
2023/05/04 10:50:46;;;;;;;3.47;1.50;;;19.70;65.10;;;;;;5061423;28;20057;-33
2023/05/04 10:53:13;;;;;;;3.88;1.80;;;;;;;;;;5063992;28;20709;-33
2023/05/04 10:55:40;;;;;;;2.92;1.52;;;20.10;65.50;;;;;;5065992;28;20128;-31
2023/05/04 10:58:08;;;;;;;4.70;1.70;;;;;;;;;;5059129;28;20040;-33
2023/05/04 11:00:36;;;;;;;4.18;1.60;;;19.10;64.90;;;;;;5059563;28;20049;-31
2023/05/04 11:03:03;;;;;;;3.15;1.52;;;19.90;47.70;;;;;;5059151;28;20128;-34
2023/05/04 11:05:42;;;;;;;3.10;1.50;;;20.20;65.90;;;;;;5059954;28;20409;-31
2023/05/04 11:08:16;;;;;;;4.40;1.70;;;18.80;64.70;;;;;;5062078;28;20044;-31
2023/05/04 11:10:42;;;;;;;4.55;2.00;;;19.60;65.20;;;;;;5061657;28;20647;-31
2023/05/04 11:13:11;;;;;;;3.38;1.60;;;20.80;55.10;;;;;;5065051;28;20076;-32
2023/05/04 11:15:44;;;;;;;4.20;1.60;;;19.30;65.40;;;;;;5072650;28;20459;-31
2023/05/04 11:18:11;;;;;;;3.72;1.77;;;;;;;;;;5072057;28;20049;-34
2023/05/04 11:20:39;;;;;;;1.90;1.50;;;18.80;64.60;;;;;;5072126;28;20048;-31
2023/05/04 11:23:09;;;;;;;2.95;1.65;;;;;;;;;;5052399;28;20127;-31
2023/05/04 11:25:36;;;;;;;3.78;1.63;;;20.10;55.70;;;;;;5051925;28;20132;-32
2023/05/04 11:28:03;;;;;;;2.60;1.50;;;19.80;66.00;;;;;;5052412;28;20055;-34
2023/05/04 11:30:33;;;;;;;2.67;1.60;;;19.80;53.90;;;;;;5053080;28;20132;-33
2023/05/04 11:33:00;;;;;;;3.80;1.80;;;20.90;53.10;;;;;;5052814;28;20133;-31
2023/05/04 11:35:27;;;;;;;2.90;1.50;;;20.10;66.30;;;;;;5053030;28;20148;-31
2023/05/04 11:37:55;;;;;;;3.10;1.65;;;19.90;46.80;;;;;;5069636;28;20048;-35
2023/05/04 11:40:23;;;;;;;3.10;1.50;;;19.90;46.80;;;;;;5071897;28;20047;-34
2023/05/04 11:42:49;;;;;;;2.20;1.30;;;19.70;65.50;;;;;;5072263;28;20127;-31
2023/05/04 11:45:17;;;;;;;2.45;1.73;;;19.60;59.70;;;;;;5072705;28;20049;-33
2023/05/04 11:47:44;;;;;;;3.78;1.70;;;;;;;;;;5072530;28;20506;-35
2023/05/04 11:50:12;;;;;;;3.83;1.80;;;20.90;65.60;;;;;;5072442;28;20131;-31
2023/05/04 11:52:39;;;;;;;3.10;1.70;;;19.80;61.80;;;;;;5072289;28;20056;-32
2023/05/04 11:55:09;;;;;;;2.25;1.40;;;19.90;46.80;;;;;;5072262;28;20055;-37
2023/05/04 11:57:36;;;;;;;4.55;1.70;;;20.20;66.20;;;;;;5072307;28;20486;-31
2023/05/04 12:00:04;;;;;;;3.63;1.63;;;18.90;64.60;;;;;;5072354;28;20055;-31
2023/05/04 12:02:31;;;;;;;3.00;1.40;;;20.50;65.80;;;;;;5072066;28;20041;-31
2023/05/04 12:04:58;;;;;;;2.42;1.40;;;19.80;65.10;;;;;;5072408;28;20191;-31
2023/05/04 12:07:25;;;;;;;2.97;1.30;;;;;;;;;;5072280;28;20131;-35
2023/05/04 12:09:51;;;;;;;2.38;1.60;;;19.50;65.00;;;;;;5061699;28;20128;-31
2023/05/04 12:12:20;;;;;;;3.35;1.50;;;19.80;66.00;;;;;;5061744;28;20047;-33
2023/05/04 12:14:50;;;;;;;4.22;1.50;;;19.90;46.90;;;;;;5071862;28;20048;-36
2023/05/04 12:17:17;;;;;;;3.90;1.73;;;20.50;54.90;;;;;;5072226;28;20056;-34
2023/05/04 12:19:48;;;;;;;3.72;1.67;;;19.70;65.90;;;;;;5072282;28;20059;-31
2023/05/04 12:22:15;;;;;;;2.55;1.30;;;19.80;57.10;;;;;;5062907;28;20151;-32
2023/05/04 12:24:42;;;;;;;3.83;1.60;;;20.30;66.30;;;;;;5052588;28;20418;-31
2023/05/04 12:27:12;;;;;;;2.95;1.55;;;20.30;65.90;;;;;;5051817;28;20045;-31
2023/05/04 12:29:40;;;;;;;2.22;1.33;;;19.80;66.00;;;;;;5052048;28;20061;-31
2023/05/04 12:32:07;;;;;;;2.72;1.77;;;20.40;49.30;;;;;;5061260;28;20045;-31
2023/05/04 12:34:34;;;;;;;2.53;1.52;;;20.30;58.10;;;;;;5057904;28;20123;-31
2023/05/04 12:37:02;;;;;;;2.03;1.40;;;;;;;;;;5060822;28;20053;-35
2023/05/04 12:39:31;;;;;;;4.88;1.60;;;19.50;65.10;;;;;;5058764;28;20065;-31
2023/05/04 12:41:58;;;;;;;2.45;1.30;;;20.00;48.70;;;;;;5061582;28;20056;-34
2023/05/04 12:44:25;;;;;;;2.72;1.40;;;20.00;57.70;;;;;;5062128;28;20099;-31
2023/05/04 12:46:53;;;;;;;4.70;1.60;;;19.90;47.10;;;;;;5060441;28;20140;-35
2023/05/04 12:49:20;;;;;;;3.13;1.52;;;19.80;63.70;;;;;;5053343;28;20124;-31
2023/05/04 12:51:47;;;;;;;1.98;1.40;;;20.10;65.40;;;;;;5063207;28;20420;-31
2023/05/04 12:54:13;;;;;;;1.98;1.33;;;20.30;66.00;;;;;;5060314;28;20037;-31
2023/05/04 12:56:40;;;;;;;3.03;1.35;;;19.90;56.30;;;;;;5066143;28;20569;-31
2023/05/04 12:59:07;;;;;;;1.70;1.23;;;19.30;65.00;;;;;;5059066;28;20098;-31
2023/05/04 13:01:34;;;;;;;2.85;1.60;;;;;;;;;;5071891;28;20128;-31
2023/05/04 13:04:02;;;;;;;3.30;1.35;;;20.50;62.90;;;;;;5071319;28;20135;-31
2023/05/04 13:06:29;;;;;;;2.35;1.40;;;20.20;65.70;;;;;;5062433;28;20048;-31
2023/05/04 13:08:56;;;;;;;1.77;1.25;;;;;;;;;;5069148;28;20099;-32
2023/05/04 13:11:23;;;;;;;2.08;1.40;;;19.50;64.70;;;;;;5053110;28;20048;-31